Main page
METAR-TAF:

METAR-TAF

Airports :

Mendoza, Argentina

Governor Francisco Gabrielli International Airport

latitude: 32-50S, longitude: 068-47W, elevation: 705 m

Current weather observation

The report was made 48 minutes ago, at 02:00 UTC
Wind 2 kt from the Southeast
Temperature 18°C
Humidity 94%
Pressure 1012 hPa
Visibility 10 km or more
no clouds below 1500 m and no cumulonimbus

METAR: SAME 300200Z 14002KT CAVOK 18/17 Q1012

Time: 23:48 (02:48 UTC)

Forecast

The report was made 3 hours and 48 minutes ago, at 23:00 UTC
Forecast valid from 30 at 00 UTC to 30 at 24 UTC
Wind 5 kt from the Southeast
Scattered clouds at a height of 3000 ft
Scattered clouds at a height of 4000 ft

TAF: SAME 292300Z 3000/3024 14005KT SCT030 SCT040 TX24/3020Z TN16/3010Z

Weather observations and forecasts of more than 4000 airports (METAR and TAF reports).

The available stations are represented by yellow and red dots on the map.

Hover mouse over dot to see the name of the station.

Then click to see weather observations and forecasts.

To change the map : click on the green buttons with a black cross to zoom in, on the green button with a dash to zoom out, or on the green arrows for adjacent maps.


METAR-TAF: